Time;durP1;ratioP1;P1;durP2;ratioP2;P2;SDS_P1;SDS_P2;PMS_P1;PMS_P2;Temp;Humidity;BMP_temperature;BMP_pressure;BME280_temperature;BME280_humidity;BME280_pressure;Samples;Min_cycle;Max_cycle;Signal;HPM_P1;HPM_P2
2021/10/07 00:02:06;;;;;;;0.80;0.80;;;14.20;99.90;;;;;;5012208;28;20487;-79
2021/10/07 00:04:32;;;;;;;1.30;1.20;;;14.30;99.90;;;;;;5008908;28;20395;-82
2021/10/07 00:06:58;;;;;;;156.93;97.72;;;14.20;99.90;;;;;;5012406;28;20026;-79
2021/10/07 00:09:24;;;;;;;176.55;109.57;;;14.20;99.90;;;;;;5012470;28;20025;-79
2021/10/07 00:11:51;;;;;;;138.75;88.80;;;14.30;99.90;;;;;;5012530;28;20038;-79
2021/10/07 00:14:17;;;;;;;13.50;12.15;;;14.40;99.90;;;;;;5012208;28;20026;-79
2021/10/07 00:16:43;;;;;;;7.15;6.55;;;14.40;99.90;;;;;;5002068;28;20058;-77
2021/10/07 00:19:09;;;;;;;4.78;4.07;;;14.40;99.90;;;;;;4991423;28;20065;-77
2021/10/07 00:21:35;;;;;;;3.33;3.13;;;14.40;99.90;;;;;;5007869;28;20015;-77
2021/10/07 00:24:08;;;;;;;2.05;1.95;;;14.40;99.90;;;;;;5012339;28;20041;-78
2021/10/07 00:26:39;;;;;;;1.67;1.58;;;14.50;99.90;;;;;;5008763;28;20464;-77
2021/10/07 00:31:55;;;;;;;3.25;1.20;;;14.40;99.90;;;;;;4992855;28;20037;-77
2021/10/07 00:39:31;;;;;;;0.70;0.70;;;14.40;99.90;;;;;;4994649;28;20041;-77
2021/10/07 00:41:57;;;;;;;2.95;1.10;;;14.40;99.90;;;;;;5002362;28;20030;-79
2021/10/07 00:44:28;;;;;;;0.70;0.70;;;14.40;99.90;;;;;;4995399;28;20492;-79
2021/10/07 00:46:59;;;;;;;0.80;0.77;;;14.30;99.90;;;;;;5013081;28;20030;-78
2021/10/07 00:49:28;;;;;;;0.80;0.80;;;14.30;99.90;;;;;;5027135;28;20022;-79
2021/10/07 00:51:54;;;;;;;1.20;1.10;;;14.40;99.90;;;;;;5011359;28;20029;-78
2021/10/07 00:54:23;;;;;;;0.88;0.88;;;14.40;99.90;;;;;;5010441;28;20064;-79
2021/10/07 00:56:49;;;;;;;0.73;0.55;;;14.30;99.90;;;;;;5010671;28;20022;-79
2021/10/07 00:59:16;;;;;;;3.67;1.00;;;14.20;99.90;;;;;;5007963;28;20029;-79
2021/10/07 01:01:42;;;;;;;1.67;0.80;;;14.20;99.90;;;;;;4998426;28;20101;-79
2021/10/07 01:04:08;;;;;;;1.35;0.80;;;14.20;99.90;;;;;;5000715;28;20022;-79
2021/10/07 01:06:34;;;;;;;0.85;0.70;;;14.20;99.90;;;;;;5011809;28;20037;-79
2021/10/07 01:09:01;;;;;;;0.50;0.50;;;14.20;99.90;;;;;;5011730;28;20018;-78
2021/10/07 01:11:27;;;;;;;0.57;0.57;;;14.20;99.90;;;;;;5022998;28;20057;-79
2021/10/07 01:13:53;;;;;;;0.57;0.57;;;14.20;99.90;;;;;;4992909;28;20470;-79
2021/10/07 01:16:18;;;;;;;0.65;0.65;;;14.20;99.90;;;;;;5011056;28;20038;-78
2021/10/07 01:18:46;;;;;;;1.80;0.82;;;14.20;99.90;;;;;;5011841;28;20040;-78
2021/10/07 01:21:14;;;;;;;0.50;0.50;;;14.10;99.90;;;;;;5003996;28;20021;-78
2021/10/07 01:23:41;;;;;;;0.43;0.43;;;14.10;99.90;;;;;;5010052;28;20034;-78
2021/10/07 01:26:08;;;;;;;0.90;0.43;;;14.10;99.90;;;;;;5010312;28;20026;-78
2021/10/07 01:28:36;;;;;;;0.50;0.50;;;14.10;99.90;;;;;;5012649;28;20109;-78
2021/10/07 01:31:03;;;;;;;2.70;0.60;;;14.10;99.90;;;;;;5013020;28;20052;-78
2021/10/07 01:33:29;;;;;;;2.35;0.30;;;14.00;99.90;;;;;;5006276;28;20045;-78
2021/10/07 01:35:55;;;;;;;0.68;0.40;;;14.10;99.90;;;;;;5001219;28;20018;-78
2021/10/07 01:38:20;;;;;;;0.30;0.30;;;14.10;99.90;;;;;;5003623;28;20476;-77
2021/10/07 01:40:46;;;;;;;0.30;0.30;;;14.10;99.90;;;;;;5003816;28;20018;-77
2021/10/07 01:43:12;;;;;;;0.20;0.20;;;14.10;99.90;;;;;;5003314;28;20038;-77
2021/10/07 01:45:38;;;;;;;0.20;0.20;;;14.10;99.90;;;;;;4996293;28;20030;-78
2021/10/07 01:48:05;;;;;;;0.88;0.55;;;14.20;99.90;;;;;;4995749;28;20025;-78
2021/10/07 01:50:31;;;;;;;0.40;0.35;;;14.30;99.30;;;;;;4995673;28;20072;-78
2021/10/07 01:52:56;;;;;;;0.17;0.17;;;14.50;98.10;;;;;;4996548;28;20644;-78
2021/10/07 01:55:22;;;;;;;0.30;0.20;;;14.50;96.30;;;;;;4995538;28;20117;-78
2021/10/07 01:57:48;;;;;;;0.20;0.20;;;14.70;94.50;;;;;;5010567;28;20109;-78
2021/10/07 02:00:14;;;;;;;3.63;0.20;;;14.80;93.00;;;;;;4995534;28;20472;-78
2021/10/07 02:02:41;;;;;;;0.20;0.20;;;14.90;90.80;;;;;;4995265;28;20026;-78
2021/10/07 02:05:08;;;;;;;0.65;0.30;;;15.00;90.10;;;;;;4998463;28;20034;-78
2021/10/07 02:07:34;;;;;;;0.15;0.15;;;15.10;88.90;;;;;;4995145;28;20033;-77
2021/10/07 02:10:00;;;;;;;0.15;0.15;;;15.10;86.90;;;;;;4994067;28;20396;-77
2021/10/07 02:12:26;;;;;;;0.25;0.25;;;15.20;86.00;;;;;;5007771;28;20022;-78
2021/10/07 02:14:51;;;;;;;0.15;0.15;;;15.30;82.40;;;;;;5014821;28;20044;-78
2021/10/07 02:17:17;;;;;;;0.20;0.20;;;15.40;81.50;;;;;;5014737;28;20046;-77
2021/10/07 02:19:43;;;;;;;0.30;0.20;;;15.40;80.80;;;;;;4996033;28;20038;-77
2021/10/07 02:22:09;;;;;;;0.40;0.40;;;15.50;78.00;;;;;;4994821;28;20022;-78
2021/10/07 02:24:34;;;;;;;2.10;0.20;;;15.60;78.70;;;;;;4995017;28;20452;-77
2021/10/07 02:27:00;;;;;;;0.13;0.13;;;15.60;78.00;;;;;;5009945;28;20022;-78
2021/10/07 02:29:27;;;;;;;0.32;0.20;;;15.70;74.60;;;;;;4995343;28;20529;-77
2021/10/07 02:31:53;;;;;;;0.13;0.13;;;15.70;75.90;;;;;;4994811;28;20069;-77
2021/10/07 02:34:18;;;;;;;0.10;0.10;;;15.60;76.10;;;;;;5003723;28;20030;-77
2021/10/07 02:36:44;;;;;;;7.88;0.25;;;15.60;77.80;;;;;;5014412;28;20022;-77
2021/10/07 02:39:10;;;;;;;0.10;0.10;;;15.60;77.40;;;;;;5013984;28;20030;-77
2021/10/07 02:41:36;;;;;;;0.65;0.30;;;15.60;78.60;;;;;;5014152;28;20026;-77
2021/10/07 02:44:03;;;;;;;0.20;0.20;;;15.60;76.30;;;;;;5012816;28;20384;-76
2021/10/07 02:46:29;;;;;;;1.63;0.10;;;15.60;78.00;;;;;;5012547;28;20080;-77
2021/10/07 02:48:55;;;;;;;2.47;0.30;;;15.50;78.10;;;;;;5013357;28;20443;-76
2021/10/07 02:51:21;;;;;;;0.10;0.10;;;15.60;76.50;;;;;;5013967;28;20026;-76
2021/10/07 02:53:46;;;;;;;1.60;0.20;;;15.60;77.40;;;;;;5012612;28;20083;-76
2021/10/07 02:56:12;;;;;;;0.15;0.15;;;15.60;76.10;;;;;;5011417;28;20057;-77
2021/10/07 02:58:38;;;;;;;4.18;0.20;;;15.60;76.60;;;;;;5007091;28;20519;-76
2021/10/07 03:01:04;;;;;;;0.10;0.10;;;15.60;75.80;;;;;;4994274;28;20393;-76
2021/10/07 03:03:30;;;;;;;0.65;0.30;;;15.60;77.00;;;;;;4997597;28;20026;-76
2021/10/07 03:05:55;;;;;;;0.90;0.38;;;15.60;76.90;;;;;;5013679;28;20036;-76
2021/10/07 03:08:27;;;;;;;0.40;0.20;;;15.60;75.20;;;;;;5028642;28;20038;-76
2021/10/07 03:10:57;;;;;;;0.20;0.20;;;15.70;73.50;;;;;;5013687;28;20026;-76
2021/10/07 03:13:24;;;;;;;0.20;0.20;;;15.70;74.90;;;;;;5012248;28;20484;-76
2021/10/07 03:15:49;;;;;;;0.52;0.30;;;15.70;76.80;;;;;;5013314;28;20056;-76
2021/10/07 03:18:15;;;;;;;0.32;0.20;;;15.60;77.40;;;;;;5011671;28;20022;-76
2021/10/07 03:20:41;;;;;;;0.40;0.20;;;15.60;78.00;;;;;;5013435;28;20506;-76
2021/10/07 03:23:07;;;;;;;0.10;0.10;;;15.60;78.40;;;;;;5011950;28;20128;-76
2021/10/07 03:25:33;;;;;;;0.20;0.10;;;15.50;82.40;;;;;;5013299;28;20030;-76
2021/10/07 03:27:59;;;;;;;0.10;0.10;;;15.50;80.70;;;;;;5010989;28;20030;-76
2021/10/07 03:30:25;;;;;;;0.10;0.10;;;15.40;83.60;;;;;;4993688;28;20022;-76
2021/10/07 03:32:51;;;;;;;0.20;0.20;;;15.40;83.10;;;;;;4992470;28;20084;-76
2021/10/07 03:35:17;;;;;;;0.28;0.28;;;15.40;84.20;;;;;;5011272;28;20026;-76
2021/10/07 03:37:43;;;;;;;3.25;0.22;;;15.30;86.20;;;;;;5012997;28;20029;-76
2021/10/07 03:40:10;;;;;;;0.30;0.20;;;15.30;88.50;;;;;;5028093;28;20022;-76
2021/10/07 03:42:36;;;;;;;0.10;0.10;;;15.30;90.00;;;;;;5013255;28;20381;-76
2021/10/07 03:45:03;;;;;;;0.93;0.20;;;15.20;89.90;;;;;;5012831;28;20077;-76
2021/10/07 03:47:30;;;;;;;0.20;0.20;;;15.20;90.10;;;;;;5012901;28;20029;-76
2021/10/07 03:49:59;;;;;;;0.80;0.20;;;15.20;90.40;;;;;;4995234;28;20030;-76
2021/10/07 03:52:26;;;;;;;1.65;0.20;;;15.10;91.30;;;;;;4991977;28;20393;-76
2021/10/07 03:54:53;;;;;;;1.27;0.15;;;15.10;91.80;;;;;;4993198;28;20022;-76
2021/10/07 03:57:19;;;;;;;1.45;0.10;;;15.10;91.50;;;;;;4993527;28;20064;-76
2021/10/07 03:59:45;;;;;;;0.20;0.10;;;15.10;91.60;;;;;;5009000;28;20033;-76
2021/10/07 04:02:10;;;;;;;0.15;0.15;;;15.10;91.80;;;;;;5012592;28;20026;-76
2021/10/07 04:04:36;;;;;;;0.20;0.20;;;15.10;91.00;;;;;;4999810;28;20393;-76
2021/10/07 04:07:02;;;;;;;0.95;0.20;;;15.00;90.70;;;;;;4992807;28;20034;-76
2021/10/07 04:09:28;;;;;;;0.20;0.13;;;15.00;91.60;;;;;;5006158;28;20087;-76
2021/10/07 04:11:54;;;;;;;1.65;0.32;;;15.10;91.30;;;;;;5012699;28;20492;-76
2021/10/07 04:14:19;;;;;;;0.20;0.10;;;15.10;90.10;;;;;;5001840;28;20080;-76
2021/10/07 04:16:45;;;;;;;0.20;0.20;;;15.20;84.30;;;;;;5001366;28;20052;-76
2021/10/07 04:19:11;;;;;;;0.20;0.20;;;15.20;85.20;;;;;;5012438;28;20432;-76
2021/10/07 04:21:39;;;;;;;0.10;0.10;;;15.30;82.50;;;;;;5012310;28;20018;-76
2021/10/07 04:24:04;;;;;;;1.15;0.30;;;15.30;82.90;;;;;;5012421;28;20018;-76
2021/10/07 04:26:32;;;;;;;1.15;0.17;;;15.30;82.30;;;;;;5005419;28;20013;-76
2021/10/07 04:28:58;;;;;;;0.45;0.20;;;15.50;77.20;;;;;;4992717;28;20037;-77
2021/10/07 04:31:24;;;;;;;0.10;0.10;;;15.50;76.60;;;;;;4992650;28;20018;-76
2021/10/07 04:33:50;;;;;;;0.20;0.20;;;15.60;78.10;;;;;;4998671;28;20052;-76
2021/10/07 04:36:16;;;;;;;0.25;0.25;;;15.60;75.10;;;;;;5011350;28;20029;-76
2021/10/07 04:38:42;;;;;;;0.13;0.13;;;15.60;75.90;;;;;;5012238;28;20174;-76
2021/10/07 04:41:07;;;;;;;0.10;0.10;;;15.60;76.40;;;;;;5012063;28;20018;-76
2021/10/07 04:43:33;;;;;;;0.10;0.10;;;15.70;74.60;;;;;;5011904;28;20072;-76
2021/10/07 04:45:59;;;;;;;0.10;0.10;;;15.70;74.60;;;;;;5011210;28;20060;-76
2021/10/07 04:48:25;;;;;;;0.05;0.05;;;15.80;71.70;;;;;;4997194;28;20117;-76
2021/10/07 04:50:51;;;;;;;0.22;0.10;;;15.80;73.40;;;;;;5008256;28;20025;-76
2021/10/07 04:53:16;;;;;;;0.35;0.17;;;15.80;72.00;;;;;;5011751;28;20030;-76
2021/10/07 04:55:42;;;;;;;2.17;0.20;;;15.80;71.60;;;;;;5011326;28;20014;-76
2021/10/07 04:58:08;;;;;;;0.60;0.20;;;15.90;71.10;;;;;;5000674;28;20502;-76
2021/10/07 05:00:33;;;;;;;0.10;0.10;;;15.90;72.20;;;;;;5001698;28;20550;-76
2021/10/07 05:02:59;;;;;;;0.75;0.28;;;15.90;70.20;;;;;;4999986;28;20027;-76
2021/10/07 05:05:25;;;;;;;1.60;0.20;;;15.90;69.70;;;;;;5011223;28;20041;-76
2021/10/07 05:07:51;;;;;;;0.10;0.10;;;16.00;69.40;;;;;;5009991;28;20033;-76
2021/10/07 05:10:17;;;;;;;1.45;0.43;;;16.00;70.70;;;;;;5011362;28;20030;-76
2021/10/07 05:12:42;;;;;;;1.42;0.30;;;16.00;71.50;;;;;;5010305;28;20026;-76
2021/10/07 05:15:09;;;;;;;0.10;0.10;;;15.90;69.90;;;;;;5011085;28;20030;-76
2021/10/07 05:17:35;;;;;;;1.27;0.20;;;16.00;70.70;;;;;;4996721;28;20049;-76
2021/10/07 05:20:03;;;;;;;0.35;0.20;;;15.90;70.80;;;;;;4991449;28;20026;-76
2021/10/07 05:22:28;;;;;;;1.02;0.30;;;15.90;71.10;;;;;;4994191;28;20027;-76
2021/10/07 05:24:54;;;;;;;0.10;0.10;;;15.90;71.10;;;;;;4994096;28;20026;-76
2021/10/07 05:27:20;;;;;;;0.15;0.15;;;15.90;71.30;;;;;;4995041;28;20113;-76
2021/10/07 05:29:45;;;;;;;0.10;0.10;;;15.90;70.70;;;;;;4994874;28;20014;-76
2021/10/07 05:32:11;;;;;;;0.57;0.38;;;15.90;71.00;;;;;;4995705;28;20052;-76
2021/10/07 05:34:37;;;;;;;0.55;0.30;;;15.90;70.60;;;;;;5007879;28;20029;-76
2021/10/07 05:37:03;;;;;;;0.10;0.10;;;15.90;70.20;;;;;;5015338;28;20026;-76
2021/10/07 05:39:28;;;;;;;0.50;0.30;;;15.90;70.10;;;;;;5014139;28;20037;-76
2021/10/07 05:41:54;;;;;;;2.15;0.25;;;15.90;70.30;;;;;;5013943;28;20113;-76
2021/10/07 05:44:20;;;;;;;3.92;0.38;;;15.90;70.30;;;;;;5015180;28;20104;-76
2021/10/07 05:46:46;;;;;;;0.30;0.30;;;15.90;70.70;;;;;;4996735;28;20365;-77
2021/10/07 05:49:11;;;;;;;0.20;0.20;;;15.90;69.40;;;;;;4995599;28;20443;-76
2021/10/07 05:51:37;;;;;;;0.10;0.10;;;15.90;69.50;;;;;;4995496;28;20014;-76
2021/10/07 05:54:03;;;;;;;0.55;0.20;;;16.00;69.60;;;;;;4995353;28;20485;-76
2021/10/07 05:56:29;;;;;;;0.40;0.17;;;16.00;70.10;;;;;;4997361;28;20027;-76
2021/10/07 05:58:55;;;;;;;0.75;0.20;;;15.90;69.80;;;;;;5003576;28;20034;-76
2021/10/07 06:01:20;;;;;;;2.53;0.55;;;16.00;69.80;;;;;;5007050;28;20037;-76
2021/10/07 06:03:46;;;;;;;0.15;0.15;;;16.00;69.00;;;;;;5015039;28;20394;-76
2021/10/07 06:06:12;;;;;;;0.20;0.20;;;16.00;70.20;;;;;;5014889;28;20037;-76
2021/10/07 06:08:37;;;;;;;0.52;0.20;;;16.00;70.90;;;;;;5016374;28;20065;-76
2021/10/07 06:11:04;;;;;;;0.10;0.10;;;16.00;68.40;;;;;;5016292;28;20634;-76
2021/10/07 06:13:30;;;;;;;0.75;0.25;;;16.00;69.20;;;;;;5014892;28;20030;-76
2021/10/07 06:15:56;;;;;;;1.35;0.17;;;16.10;71.20;;;;;;5014557;28;20543;-76
2021/10/07 06:18:22;;;;;;;0.57;0.10;;;16.00;69.00;;;;;;4996646;28;20128;-76
2021/10/07 06:20:48;;;;;;;0.10;0.10;;;16.10;67.10;;;;;;4995128;28;20361;-76
2021/10/07 06:23:14;;;;;;;0.10;0.10;;;16.10;67.90;;;;;;4994801;28;20077;-76
2021/10/07 06:25:40;;;;;;;0.20;0.15;;;16.10;70.60;;;;;;4994883;28;20492;-76
2021/10/07 06:28:07;;;;;;;0.20;0.10;;;16.10;71.00;;;;;;5009974;28;20436;-76
2021/10/07 06:30:34;;;;;;;0.20;0.20;;;16.20;69.90;;;;;;5014172;28;20029;-76
2021/10/07 06:33:00;;;;;;;0.10;0.10;;;16.20;71.60;;;;;;5012869;28;20514;-76
2021/10/07 06:35:27;;;;;;;0.10;0.10;;;16.20;70.00;;;;;;4995139;28;20125;-76
2021/10/07 06:37:53;;;;;;;0.10;0.10;;;16.20;70.70;;;;;;4994625;28;20101;-76
2021/10/07 06:40:20;;;;;;;0.10;0.10;;;16.30;68.90;;;;;;5009989;28;20026;-76
2021/10/07 06:42:45;;;;;;;1.95;0.20;;;16.30;68.10;;;;;;5014048;28;20014;-76
2021/10/07 06:45:12;;;;;;;0.45;0.20;;;16.40;69.30;;;;;;5012438;28;20037;-75
2021/10/07 06:47:39;;;;;;;0.32;0.10;;;16.40;68.40;;;;;;4994383;28;20054;-75
2021/10/07 06:50:10;;;;;;;0.20;0.20;;;16.40;67.50;;;;;;4996916;28;20121;-75
2021/10/07 06:52:37;;;;;;;1.08;0.30;;;16.40;68.00;;;;;;5011141;28;20033;-75
2021/10/07 06:55:03;;;;;;;10.95;0.60;;;16.50;68.20;;;;;;5013731;28;20384;-75
2021/10/07 06:57:29;;;;;;;0.17;0.15;;;16.50;69.00;;;;;;5014660;28;20100;-75
2021/10/07 06:59:54;;;;;;;0.00;0.00;;;16.50;68.30;;;;;;4995947;28;20030;-75
2021/10/07 07:02:20;;;;;;;0.10;0.10;;;16.50;70.10;;;;;;4995077;28;20145;-75
2021/10/07 07:04:46;;;;;;;0.25;0.20;;;16.50;73.00;;;;;;5011245;28;20519;-75
2021/10/07 07:07:12;;;;;;;0.20;0.20;;;16.50;73.00;;;;;;5013801;28;20471;-75
2021/10/07 07:09:37;;;;;;;0.17;0.17;;;16.50;72.20;;;;;;5028783;28;20200;-75
2021/10/07 07:12:03;;;;;;;1.35;0.20;;;16.50;73.90;;;;;;5012592;28;20026;-75
2021/10/07 07:14:29;;;;;;;0.22;0.22;;;16.60;71.50;;;;;;5012815;28;20189;-75
2021/10/07 07:16:55;;;;;;;0.10;0.10;;;16.60;71.20;;;;;;5011338;28;20049;-75
2021/10/07 07:19:20;;;;;;;0.10;0.10;;;16.70;70.80;;;;;;5009829;28;20049;-75
2021/10/07 07:21:46;;;;;;;0.10;0.10;;;16.70;70.80;;;;;;5008546;28;20460;-75
2021/10/07 07:24:12;;;;;;;0.30;0.30;;;16.80;71.60;;;;;;5009003;28;20026;-75
2021/10/07 07:26:38;;;;;;;0.80;0.15;;;16.80;73.10;;;;;;5010026;28;20026;-75
2021/10/07 07:29:03;;;;;;;0.10;0.10;;;16.90;71.70;;;;;;5009109;28;20113;-76
2021/10/07 07:31:30;;;;;;;0.10;0.10;;;16.90;73.00;;;;;;4999718;28;20151;-76
2021/10/07 07:33:56;;;;;;;1.13;0.20;;;16.90;70.00;;;;;;4997379;28;20041;-75
2021/10/07 07:36:25;;;;;;;0.90;0.10;;;17.00;73.20;;;;;;5000772;28;20018;-76
2021/10/07 07:38:53;;;;;;;0.10;0.10;;;17.00;71.80;;;;;;5000414;28;20019;-75
2021/10/07 07:41:19;;;;;;;0.10;0.10;;;17.10;72.40;;;;;;5000034;28;20029;-75
2021/10/07 07:43:45;;;;;;;0.08;0.08;;;17.10;71.30;;;;;;4991912;28;20026;-75
2021/10/07 07:46:12;;;;;;;0.10;0.10;;;17.10;70.60;;;;;;5004625;28;20033;-75
2021/10/07 07:48:38;;;;;;;0.10;0.10;;;17.20;70.20;;;;;;5009651;28;20373;-75
2021/10/07 07:51:05;;;;;;;0.10;0.10;;;17.20;71.70;;;;;;5024626;28;20029;-75
2021/10/07 07:53:31;;;;;;;0.10;0.10;;;17.30;70.60;;;;;;4994955;28;20475;-75
2021/10/07 07:55:57;;;;;;;0.10;0.10;;;17.30;70.70;;;;;;4990435;28;20106;-75
2021/10/07 07:58:23;;;;;;;0.10;0.10;;;17.40;72.10;;;;;;4991077;28;20105;-75
2021/10/07 08:00:49;;;;;;;0.10;0.10;;;17.40;74.40;;;;;;4995269;28;20021;-76
2021/10/07 08:03:15;;;;;;;1.20;0.10;;;17.50;70.20;;;;;;5009835;28;20022;-75
2021/10/07 08:05:42;;;;;;;0.20;0.20;;;17.50;72.70;;;;;;5010776;28;20429;-75
2021/10/07 08:08:08;;;;;;;0.10;0.10;;;17.50;70.10;;;;;;5008730;28;20124;-75
2021/10/07 08:10:34;;;;;;;0.15;0.10;;;17.60;74.80;;;;;;5003095;28;20036;-75
2021/10/07 08:13:00;;;;;;;1.05;0.20;;;17.60;70.60;;;;;;5004307;28;20039;-75
2021/10/07 08:15:26;;;;;;;0.10;0.10;;;17.60;69.20;;;;;;4990257;28;20066;-74
2021/10/07 08:17:53;;;;;;;0.10;0.10;;;17.70;69.20;;;;;;5001230;28;20123;-75
2021/10/07 08:20:20;;;;;;;0.10;0.10;;;17.70;67.90;;;;;;5003783;28;20021;-74
2021/10/07 08:22:47;;;;;;;0.55;0.20;;;17.70;67.40;;;;;;4992503;28;20404;-76
2021/10/07 08:25:17;;;;;;;0.15;0.15;;;17.70;68.70;;;;;;5009372;28;20030;-75
2021/10/07 08:27:43;;;;;;;0.10;0.10;;;17.70;67.60;;;;;;5009356;28;20033;-75
2021/10/07 08:30:10;;;;;;;1.20;0.20;;;17.70;68.60;;;;;;5010023;28;20026;-74
2021/10/07 08:32:37;;;;;;;0.10;0.10;;;17.70;67.40;;;;;;5008888;28;20035;-74
2021/10/07 08:35:04;;;;;;;4.20;0.20;;;17.70;69.00;;;;;;5009311;28;20485;-74
2021/10/07 08:37:31;;;;;;;0.10;0.10;;;17.70;69.60;;;;;;5007404;28;20018;-74
2021/10/07 08:39:57;;;;;;;0.20;0.20;;;17.80;67.40;;;;;;5009587;28;20061;-75
2021/10/07 08:42:22;;;;;;;0.10;0.10;;;17.70;67.00;;;;;;5008281;28;20107;-75
2021/10/07 08:44:49;;;;;;;0.10;0.10;;;17.80;66.30;;;;;;4997950;28;20031;-76
2021/10/07 08:47:44;;;;;;;0.00;0.00;;;17.80;67.60;;;;;;5008411;28;20103;-76
2021/10/07 08:50:34;;;;;;;1.25;0.13;;;17.80;65.50;;;;;;4998465;28;20046;-76
2021/10/07 08:55:50;;;;;;;0.35;0.10;;;17.80;67.80;;;;;;5001556;28;20037;-75
2021/10/07 08:58:16;;;;;;;2.20;0.20;;;17.90;65.90;;;;;;4990024;28;20019;-76
2021/10/07 09:00:42;;;;;;;1.40;0.00;;;17.90;67.00;;;;;;4990436;28;20030;-75
2021/10/07 09:03:19;;;;;;;0.22;0.13;;;18.00;64.60;;;;;;4991491;28;20080;-76
2021/10/07 09:05:45;;;;;;;0.10;0.10;;;18.10;64.50;;;;;;5011111;28;20037;-75
2021/10/07 09:08:14;;;;;;;0.10;0.10;;;18.10;65.60;;;;;;5010041;28;20026;-76
2021/10/07 09:10:51;;;;;;;0.10;0.10;;;18.20;65.80;;;;;;5010628;28;20573;-75
2021/10/07 09:13:22;;;;;;;0.13;0.10;;;18.20;65.40;;;;;;5010530;28;20018;-76
2021/10/07 09:16:00;;;;;;;0.00;0.00;;;18.20;65.10;;;;;;5010141;28;20117;-75
2021/10/07 09:18:28;;;;;;;0.43;0.10;;;18.20;65.30;;;;;;5002487;28;20153;-75
2021/10/07 09:21:13;;;;;;;0.10;0.10;;;18.20;67.10;;;;;;4990235;28;20049;-76
2021/10/07 09:23:40;;;;;;;0.10;0.10;;;18.20;66.50;;;;;;4988975;28;20617;-76
2021/10/07 09:26:08;;;;;;;0.00;0.00;;;18.20;69.90;;;;;;4999501;28;20100;-76
2021/10/07 09:28:58;;;;;;;0.10;0.10;;;18.20;66.40;;;;;;5008636;28;20033;-76
2021/10/07 09:31:30;;;;;;;0.10;0.10;;;18.30;68.10;;;;;;5000688;28;20115;-76
2021/10/07 09:33:57;;;;;;;;;;;18.30;66.70;;;;;;5023987;28;20492;-76
2021/10/07 09:36:24;;;;;;;0.10;0.10;;;18.30;66.20;;;;;;5009369;28;19909;-76
2021/10/07 09:38:54;;;;;;;0.00;0.00;;;18.40;66.00;;;;;;5007781;28;20026;-76
2021/10/07 09:41:27;;;;;;;0.47;0.10;;;18.40;65.20;;;;;;5004848;28;20042;-75
2021/10/07 09:44:00;;;;;;;0.10;0.10;;;18.40;66.70;;;;;;5014419;28;20034;-75
2021/10/07 09:46:49;;;;;;;0.10;0.10;;;18.50;66.00;;;;;;4988701;28;20045;-76
2021/10/07 09:49:31;;;;;;;0.63;0.10;;;18.50;67.30;;;;;;4990091;28;20082;-76
2021/10/07 09:51:58;;;;;;;0.00;0.00;;;18.50;65.10;;;;;;4990186;28;20042;-76
2021/10/07 09:54:27;;;;;;;0.00;0.00;;;18.60;63.40;;;;;;4990239;28;20142;-76
2021/10/07 09:56:59;;;;;;;0.10;0.10;;;18.60;63.60;;;;;;4990663;28;20018;-76
2021/10/07 09:59:27;;;;;;;0.17;0.17;;;18.60;63.20;;;;;;4990273;28;20046;-76
2021/10/07 10:01:55;;;;;;;0.17;0.17;;;18.60;62.40;;;;;;4989642;28;20061;-76
2021/10/07 10:04:22;;;;;;;0.10;0.10;;;18.60;61.80;;;;;;5000389;28;20021;-75
2021/10/07 10:06:48;;;;;;;0.38;0.10;;;18.60;64.80;;;;;;5012664;28;20549;-75
2021/10/07 10:09:14;;;;;;;0.32;0.15;;;18.60;66.20;;;;;;5012557;28;20105;-77
2021/10/07 10:11:43;;;;;;;0.20;0.10;;;18.70;64.00;;;;;;5013856;28;20720;-76
2021/10/07 10:14:09;;;;;;;0.10;0.10;;;18.80;64.30;;;;;;5011286;28;20033;-76
2021/10/07 10:16:39;;;;;;;0.00;0.00;;;18.80;63.20;;;;;;5004118;28;20092;-77
2021/10/07 10:19:07;;;;;;;0.28;0.10;;;18.80;63.70;;;;;;5004993;28;20045;-76
2021/10/07 10:21:39;;;;;;;0.10;0.10;;;18.90;62.60;;;;;;5002429;28;20014;-76
2021/10/07 10:24:07;;;;;;;0.20;0.10;;;18.90;65.80;;;;;;5006980;28;20022;-76
2021/10/07 10:26:37;;;;;;;0.10;0.10;;;18.90;63.50;;;;;;5007874;28;20118;-76
2021/10/07 10:29:04;;;;;;;0.10;0.10;;;19.00;66.60;;;;;;4995895;28;20088;-76
2021/10/07 10:31:36;;;;;;;0.10;0.10;;;18.90;67.00;;;;;;5002273;28;20037;-76
2021/10/07 10:34:08;;;;;;;0.05;0.05;;;19.00;62.80;;;;;;5004904;28;20492;-76
2021/10/07 10:36:43;;;;;;;0.10;0.10;;;19.10;62.70;;;;;;5000832;28;20030;-75
2021/10/07 10:39:34;;;;;;;0.00;0.00;;;19.10;63.20;;;;;;5007768;28;20026;-75
2021/10/07 10:42:17;;;;;;;0.05;0.05;;;19.10;63.00;;;;;;4990593;28;20477;-74
2021/10/07 10:44:46;;;;;;;0.08;0.08;;;19.10;63.50;;;;;;4993733;28;20383;-75
2021/10/07 10:47:12;;;;;;;0.10;0.10;;;19.10;64.00;;;;;;4999607;28;20092;-75
2021/10/07 10:49:41;;;;;;;0.08;0.08;;;19.10;62.70;;;;;;5012306;28;20029;-75
2021/10/07 10:52:29;;;;;;;0.10;0.10;;;19.20;60.60;;;;;;5011602;28;20040;-74
2021/10/07 10:55:13;;;;;;;0.00;0.00;;;19.20;60.00;;;;;;4992734;28;20523;-74
2021/10/07 10:57:50;;;;;;;1.77;0.10;;;19.20;59.40;;;;;;5007314;28;20535;-75
2021/10/07 11:00:21;;;;;;;0.77;0.08;;;19.20;62.60;;;;;;5008482;28;20431;-74
2021/10/07 11:03:11;;;;;;;0.00;0.00;;;19.20;60.50;;;;;;5008733;28;20010;-75
2021/10/07 11:06:02;;;;;;;0.03;0.03;;;19.20;63.70;;;;;;4993010;28;20044;-74
2021/10/07 11:08:56;;;;;;;0.10;0.10;;;19.10;62.80;;;;;;4992222;28;20057;-75
2021/10/07 11:11:24;;;;;;;0.10;0.10;;;19.20;61.20;;;;;;5006572;28;20113;-75
2021/10/07 11:13:53;;;;;;;0.10;0.10;;;19.20;61.50;;;;;;4993463;28;20726;-75
2021/10/07 11:16:19;;;;;;;0.10;0.10;;;19.30;64.50;;;;;;4991902;28;20385;-75
2021/10/07 11:18:46;;;;;;;0.13;0.13;;;19.30;67.50;;;;;;5012989;28;20024;-75
2021/10/07 11:21:19;;;;;;;1.70;0.20;;;19.30;63.70;;;;;;5030967;28;20357;-76
2021/10/07 11:23:50;;;;;;;0.20;0.20;;;19.40;68.20;;;;;;5029536;28;20018;-76
2021/10/07 11:26:16;;;;;;;0.50;0.30;;;19.40;76.00;;;;;;5030467;28;20460;-76
2021/10/07 11:28:44;;;;;;;0.32;0.20;;;19.40;78.60;;;;;;5034307;28;20033;-76
2021/10/07 11:31:12;;;;;;;0.40;0.17;;;19.40;79.00;;;;;;5049910;28;20030;-76
2021/10/07 11:33:41;;;;;;;1.55;0.30;;;19.40;80.70;;;;;;5029613;28;20018;-75
2021/10/07 11:36:13;;;;;;;0.40;0.40;;;19.50;80.50;;;;;;5014492;28;20492;-76
2021/10/07 11:38:42;;;;;;;0.40;0.38;;;19.50;79.50;;;;;;5014251;28;20018;-76
2021/10/07 11:41:09;;;;;;;0.80;0.40;;;19.50;82.20;;;;;;5014391;28;20079;-75
2021/10/07 11:43:37;;;;;;;1.10;0.60;;;19.50;83.20;;;;;;5014340;28;20705;-76
2021/10/07 11:46:12;;;;;;;0.65;0.35;;;19.50;82.20;;;;;;5010226;28;20530;-76
2021/10/07 11:48:44;;;;;;;4.15;0.60;;;19.50;82.50;;;;;;5011382;28;20030;-76
2021/10/07 11:51:10;;;;;;;1.52;0.68;;;19.50;83.10;;;;;;5011402;28;20638;-76
2021/10/07 11:53:38;;;;;;;2.83;0.43;;;19.50;84.20;;;;;;5010997;28;20033;-76
2021/10/07 11:56:15;;;;;;;0.43;0.43;;;19.50;85.00;;;;;;5011379;28;20619;-76
2021/10/07 11:58:47;;;;;;;0.30;0.30;;;19.50;85.10;;;;;;5011419;28;20081;-77
2021/10/07 12:01:14;;;;;;;1.15;0.52;;;19.60;85.20;;;;;;5011396;28;20483;-76
2021/10/07 12:03:39;;;;;;;1.40;0.30;;;19.60;84.30;;;;;;5009337;28;20374;-76
2021/10/07 12:06:12;;;;;;;0.50;0.50;;;19.60;84.80;;;;;;5007887;28;20053;-76
2021/10/07 12:08:43;;;;;;;1.80;0.40;;;19.70;85.90;;;;;;5010323;28;20496;-76
2021/10/07 12:11:10;;;;;;;0.60;0.60;;;19.70;83.70;;;;;;5011913;28;20030;-76
2021/10/07 12:13:37;;;;;;;4.65;2.92;;;19.70;83.70;;;;;;5013774;28;20034;-72
2021/10/07 12:16:12;;;;;;;9.35;5.97;;;19.60;87.30;;;;;;5028501;28;20054;-75
2021/10/07 12:18:41;;;;;;;1.17;1.08;;;19.60;87.40;;;;;;5013408;28;20435;-76
2021/10/07 12:21:13;;;;;;;1.23;0.88;;;19.70;86.70;;;;;;5013641;28;20511;-76
2021/10/07 12:23:59;;;;;;;2.95;0.88;;;19.70;88.40;;;;;;5013394;28;20483;-76
2021/10/07 12:26:38;;;;;;;2.10;0.70;;;19.70;88.20;;;;;;5012198;28;20038;-75
2021/10/07 12:29:10;;;;;;;4.28;0.80;;;19.70;87.90;;;;;;5011957;28;20036;-76
2021/10/07 12:31:37;;;;;;;3.45;1.00;;;19.60;87.60;;;;;;5012075;28;20305;-77
2021/10/07 12:34:05;;;;;;;0.85;0.75;;;19.70;89.40;;;;;;5012070;28;20037;-76
2021/10/07 12:36:43;;;;;;;1.25;0.98;;;19.60;89.10;;;;;;4999659;28;20022;-76
2021/10/07 12:39:42;;;;;;;1.63;1.35;;;19.60;89.00;;;;;;4992569;28;20035;-75
2021/10/07 12:42:19;;;;;;;2.15;0.85;;;19.70;90.10;;;;;;4984601;28;20469;-75
2021/10/07 12:44:46;;;;;;;3.33;1.30;;;19.80;90.90;;;;;;4992371;28;20060;-75
2021/10/07 12:47:32;;;;;;;2.30;0.80;;;19.80;90.70;;;;;;4992247;28;20031;-76
2021/10/07 12:50:16;;;;;;;6.60;1.35;;;19.90;91.30;;;;;;4992445;28;20014;-75
2021/10/07 12:52:58;;;;;;;1.52;1.30;;;20.00;90.70;;;;;;5005440;28;20022;-75
2021/10/07 12:55:26;;;;;;;1.13;1.00;;;19.90;90.40;;;;;;5011778;28;20388;-76
2021/10/07 12:57:54;;;;;;;3.08;0.98;;;19.80;90.00;;;;;;5011980;28;20033;-76
2021/10/07 13:00:25;;;;;;;1.60;1.17;;;19.80;89.20;;;;;;5011877;28;20365;-75
2021/10/07 13:02:52;;;;;;;0.80;0.80;;;19.70;89.90;;;;;;5026880;28;20383;-76